New London, New Hampshire
Current Conditions -  °F | °C
As of 9:53 AM on Tuesday 21 Oct 2014 (Local Time) from KLEB Reporting Station
Light Rain Light Rain  
Wind Chill: 47°   Ceiling: 6500
Heat Index: 47°   Visibility: 8mi
Dew Point: 42°   Wind: 0mph
Humidity: 83%   Direction: NA
Pressure: 29.99"   Gusts: NA
Location:  43.41°N, 71.99°W
Report Text: KLEB 211353Z 00000KT 8SM -RA SCT036 BKN065 OVC075 08/06 A2999 RMK AO2 SLP158 P0001 T00830056
Loading
Personal Weather Stations






























Interactive Weather Map
Tropical Storm Tracking
New forecast layout! Learn more

10-Day Weather Forecast

Advertisements
Track Severe Weather on mobile